Relevés horaires Oostende (Belgique)


Relevés horaires à Oostende - Lundi 08 Nov. 2021
Heure UTC1 Température [°C] Vent [km/h] Hum. [%] Pres.4 [hPa] Visi. [Km] Nébu. [octa] Préc.5 [mm] Cond.
2m. Res. Ros. Dir.2 Vit. Moy. Raf.3
23:00 4.9 4.9 3.8 S 3.7 5.6 7.4 93 1025(-0.2/3h) 14 1/8 -- --
22:00 4.9 3.7 3.7 SSO 5.6 5.6 7.4 92 1025.4(0.2/3h) 14 2/8 -- --
21:00 5.5 4.4 4.4 S 5.6 5.6 7.4 93 1025.4(0.4/3h) 14 2/8 -- --
20:00 5.2 5.2 3.9 S 1.9 3.7 5.6 91 1025.3(0.6/3h) 14 3/8 -- --
19:00 6.6 6.6 5.1 S 3.7 5.6 5.6 90 1025.1(0.9/3h) 15 4/8 -- --
18:00 6.8 6.8 5.4 S 3.7 -- -- 91 1025(0.9/3h) 15 5/8 0/12h
--
17:00 7.6 7.6 5.7 SSO 3.7 5.6 7.4 88 1024.6(0.5/3h) 15 4/8 -- --
16:00 8.6 8 5.1 O 5.6 7.4 11.1 79 1024.2(0.1/3h) 20 4/8 -- --
15:00 10.0 9.1 5.5 O 7.4 9.3 11.1 74 1024.1(-0.4/3h) 25 5/8 -- --
14:00 10.4 9.6 5.9 O 7.4 7.4 9.3 74 1024.1(-0.3/3h) 25 6/8 -- --
13:00 10.1 9.3 4.7 ONO 7.4 7.4 9.3 69 1024.1(-0.3/3h) 25 6/8 -- --
12:00 10.1 9.7 4.0 ONO 5.6 -- -- 66 1024.5(0.6/3h) 20 5/8 0/6h
--
11:00 9.6 8.7 4.2 ONO 7.4 7.4 11.1 69 1024.4(0.8/3h) 20 5/8 -- --
10:00 9.7 8.8 4.2 ONO 7.4 7.4 11.1 69 1024.4(1.4/3h) 20 5/8 -- --
09:00 9.3 8.3 4.6 ONO 7.4 7.4 11.1 72 1023.9(1.3/3h) 20 4/8 -- --
08:00 8.6 7.5 4.7 NO 7.4 7.4 11.1 76 1023.6(1.3/3h) 20 3/8 -- --
07:00 8.4 7.3 4.4 NO 7.4 7.4 9.3 76 1023.1(1.0/3h) 20 3/8 -- --
06:00 8.0 7.3 4.4 NO 5.6 -- -- 78 1022.7(0.6/3h) 15 4/8 0/12h
--
05:00 8.5 7.4 4.3 ONO 7.4 7.4 9.3 75 1022.4(0.3/3h) 15 5/8 -- --
04:00 8.7 7.6 4.7 ONO 7.4 7.4 9.3 76 1022.1(0.1/3h) 15 5/8 -- --
03:00 8.6 7.5 4.6 ONO 7.4 9.3 13.0 76 1022(0.0/3h) 15 5/8 -- --
02:00 9.1 8.1 4.4 NO 7.4 9.3 11.1 72 1022(0.3/3h) 15 7/8 -- --
01:00 9.4 8.4 3.9 NO 7.4 9.3 13.0 68 1022(0.3/3h) 15 7/8 -- --
00:00 10.1 8.9 4.0 NNO 9.3 -- -- 66 1022(0.6/3h) 15 7/8 0/6h
0/24h
--

1 Coordinated Universal Time. Actuellement il est 21:00 locale et 19:00 UTC.

2 Le vent souffle depuis la direction indiquée vers la direction oposée.

3 Les rafales max. sont disponible 40 min après l'heure du relevé.

4 Pour les stations d'altitude (plus de 600m) le géopotentiel du niveau le plus proche de la pression obligatoire est indiqué.

5 Les stations disposant d'un diffuseur peuvent indiquer "trace". Cela signifie que des précipitations ont touchés le sol mais que la quantité est inférieure à 0.1 mm.

Récapitulatif de la journée
Température [°C] Vent [km/h] Ensoleillement4 [h] Precipitations totale5 [mm] Pression [Hpa]
Min1 Max.2 Moy.3 Max. Min Max.
7.9 11.1 7.1 13.0 0 h 0 min 0 1022.0 1025.4

1 Température minimale relevée entre 18:00 UTC la veille et 18:00 UTC le jour donné.

2 Température maximale relevée entre 06:00 UTC le jour donné et 06:00 UTC le lendemain.

3 Vent moyen de la journée basé sur les relevés horaires.

4 Ensoleillement en heures relevé entre 06:00 UTC la veille et 06:00 UTC le jour donné.

5 Précipitations totales tombées entre 06:00 UTC la jour donné et 06:00 UTC le lendemain.

Graphiques horaires